sensor_id;sensor_type;location;lat;lon;timestamp;pressure;altitude;pressure_sealevel;temperature;humidity
23241;BME280;11789;53.482;9.862;2024-01-06T00:01:35;100571.25;;;-1.61;100.00
23241;BME280;11789;53.482;9.862;2024-01-06T00:04:01;100569.59;;;-1.61;100.00
23241;BME280;11789;53.482;9.862;2024-01-06T00:06:26;100571.25;;;-1.61;100.00
23241;BME280;11789;53.482;9.862;2024-01-06T00:08:52;100573.78;;;-1.61;100.00
23241;BME280;11789;53.482;9.862;2024-01-06T00:11:20;100579.66;;;-1.62;100.00
23241;BME280;11789;53.482;9.862;2024-01-06T00:13:46;100573.84;;;-1.60;100.00
23241;BME280;11789;53.482;9.862;2024-01-06T00:16:12;100580.59;;;-1.60;100.00
23241;BME280;11789;53.482;9.862;2024-01-06T00:18:37;100570.41;;;-1.62;100.00
23241;BME280;11789;53.482;9.862;2024-01-06T00:21:03;100576.37;;;-1.60;100.00
23241;BME280;11789;53.482;9.862;2024-01-06T00:23:29;100577.25;;;-1.59;100.00
23241;BME280;11789;53.482;9.862;2024-01-06T00:25:55;100578.09;;;-1.59;100.00
23241;BME280;11789;53.482;9.862;2024-01-06T00:28:20;100581.50;;;-1.58;100.00
23241;BME280;11789;53.482;9.862;2024-01-06T00:30:45;100581.50;;;-1.58;100.00
23241;BME280;11789;53.482;9.862;2024-01-06T00:33:12;100575.56;;;-1.59;100.00
23241;BME280;11789;53.482;9.862;2024-01-06T00:35:37;100579.94;;;-1.56;100.00
23241;BME280;11789;53.482;9.862;2024-01-06T00:38:03;100585.00;;;-1.56;100.00
23241;BME280;11789;53.482;9.862;2024-01-06T00:40:28;100598.59;;;-1.54;100.00
23241;BME280;11789;53.482;9.862;2024-01-06T00:42:54;100590.13;;;-1.54;100.00
23241;BME280;11789;53.482;9.862;2024-01-06T00:45:19;100590.94;;;-1.55;100.00
23241;BME280;11789;53.482;9.862;2024-01-06T00:47:45;100587.44;;;-1.58;100.00
23241;BME280;11789;53.482;9.862;2024-01-06T00:50:10;100591.78;;;-1.55;100.00
23241;BME280;11789;53.482;9.862;2024-01-06T00:52:36;100585.81;;;-1.57;100.00
23241;BME280;11789;53.482;9.862;2024-01-06T00:55:01;100593.41;;;-1.57;100.00
23241;BME280;11789;53.482;9.862;2024-01-06T00:57:27;100600.13;;;-1.58;100.00
23241;BME280;11789;53.482;9.862;2024-01-06T00:59:52;100597.56;;;-1.58;100.00
23241;BME280;11789;53.482;9.862;2024-01-06T01:02:17;100603.53;;;-1.57;100.00
23241;BME280;11789;53.482;9.862;2024-01-06T01:04:43;100604.31;;;-1.58;100.00
23241;BME280;11789;53.482;9.862;2024-01-06T01:07:08;100609.59;;;-1.53;100.00
23241;BME280;11789;53.482;9.862;2024-01-06T01:09:34;100609.53;;;-1.55;100.00
23241;BME280;11789;53.482;9.862;2024-01-06T01:12:00;100613.75;;;-1.55;100.00
23241;BME280;11789;53.482;9.862;2024-01-06T01:14:25;100616.34;;;-1.54;100.00
23241;BME280;11789;53.482;9.862;2024-01-06T01:16:50;100616.28;;;-1.55;100.00
23241;BME280;11789;53.482;9.862;2024-01-06T01:19:16;100614.59;;;-1.55;100.00
23241;BME280;11789;53.482;9.862;2024-01-06T01:21:41;100621.41;;;-1.54;100.00
23241;BME280;11789;53.482;9.862;2024-01-06T01:24:07;100629.06;;;-1.52;100.00
23241;BME280;11789;53.482;9.862;2024-01-06T01:26:32;100624.75;;;-1.55;100.00
23241;BME280;11789;53.482;9.862;2024-01-06T01:28:58;100626.41;;;-1.55;100.00
23241;BME280;11789;53.482;9.862;2024-01-06T01:31:23;100630.63;;;-1.56;100.00
23241;BME280;11789;53.482;9.862;2024-01-06T01:33:49;100635.81;;;-1.53;100.00
23241;BME280;11789;53.482;9.862;2024-01-06T01:36:15;100640.87;;;-1.53;100.00
23241;BME280;11789;53.482;9.862;2024-01-06T01:38:40;100644.28;;;-1.52;100.00
23241;BME280;11789;53.482;9.862;2024-01-06T01:41:06;100655.31;;;-1.52;100.00
23241;BME280;11789;53.482;9.862;2024-01-06T01:43:31;100649.28;;;-1.54;100.00
23241;BME280;11789;53.482;9.862;2024-01-06T01:45:57;100656.94;;;-1.52;100.00
23241;BME280;11789;53.482;9.862;2024-01-06T01:48:24;100649.28;;;-1.54;100.00
23241;BME280;11789;53.482;9.862;2024-01-06T01:50:50;100648.38;;;-1.56;100.00
23241;BME280;11789;53.482;9.862;2024-01-06T01:53:17;100651.00;;;-1.53;100.00
23241;BME280;11789;53.482;9.862;2024-01-06T01:55:43;100654.50;;;-1.51;100.00
23241;BME280;11789;53.482;9.862;2024-01-06T01:58:09;100656.25;;;-1.50;100.00
23241;BME280;11789;53.482;9.862;2024-01-06T02:00:36;100653.56;;;-1.53;100.00
23241;BME280;11789;53.482;9.862;2024-01-06T02:03:03;100654.25;;;-1.57;100.00
23241;BME280;11789;53.482;9.862;2024-01-06T02:05:29;100662.78;;;-1.55;100.00
23241;BME280;11789;53.482;9.862;2024-01-06T02:07:55;100667.84;;;-1.55;100.00
23241;BME280;11789;53.482;9.862;2024-01-06T02:10:21;100666.09;;;-1.56;100.00
23241;BME280;11789;53.482;9.862;2024-01-06T02:12:46;100662.62;;;-1.58;100.00
23241;BME280;11789;53.482;9.862;2024-01-06T02:15:12;100667.69;;;-1.58;100.00
23241;BME280;11789;53.482;9.862;2024-01-06T02:17:37;100669.31;;;-1.60;100.00
23241;BME280;11789;53.482;9.862;2024-01-06T02:20:06;100670.09;;;-1.61;100.00
23241;BME280;11789;53.482;9.862;2024-01-06T02:22:35;100677.72;;;-1.61;100.00
23241;BME280;11789;53.482;9.862;2024-01-06T02:25:01;100679.44;;;-1.60;100.00
23241;BME280;11789;53.482;9.862;2024-01-06T02:27:26;100679.59;;;-1.57;100.00
23241;BME280;11789;53.482;9.862;2024-01-06T02:29:52;100683.75;;;-1.58;100.00
23241;BME280;11789;53.482;9.862;2024-01-06T02:32:17;100686.38;;;-1.56;100.00
23241;BME280;11789;53.482;9.862;2024-01-06T02:34:42;100688.13;;;-1.55;100.00
23241;BME280;11789;53.482;9.862;2024-01-06T02:37:08;100687.19;;;-1.57;100.00
23241;BME280;11789;53.482;9.862;2024-01-06T02:39:33;100699.13;;;-1.54;100.00
23241;BME280;11789;53.482;9.862;2024-01-06T02:41:59;100700.78;;;-1.55;100.00
23241;BME280;11789;53.482;9.862;2024-01-06T02:44:24;100700.72;;;-1.57;100.00
23241;BME280;11789;53.482;9.862;2024-01-06T02:46:50;100697.34;;;-1.57;100.00
23241;BME280;11789;53.482;9.862;2024-01-06T02:49:15;100701.31;;;-1.62;100.00
23241;BME280;11789;53.482;9.862;2024-01-06T02:51:40;100707.31;;;-1.60;100.00
23241;BME280;11789;53.482;9.862;2024-01-06T02:54:06;100705.66;;;-1.60;100.00
23241;BME280;11789;53.482;9.862;2024-01-06T02:56:31;100707.31;;;-1.60;100.00
23241;BME280;11789;53.482;9.862;2024-01-06T02:58:56;100701.31;;;-1.62;100.00
23241;BME280;11789;53.482;9.862;2024-01-06T03:01:22;100706.41;;;-1.62;100.00
23241;BME280;11789;53.482;9.862;2024-01-06T03:03:47;100714.94;;;-1.60;100.00
23241;BME280;11789;53.482;9.862;2024-01-06T03:06:13;100717.41;;;-1.62;100.00
23241;BME280;11789;53.482;9.862;2024-01-06T03:08:38;100707.25;;;-1.62;100.00
23241;BME280;11789;53.482;9.862;2024-01-06T03:11:03;100709.00;;;-1.61;100.00
23241;BME280;11789;53.482;9.862;2024-01-06T03:13:30;100717.31;;;-1.63;100.00
23241;BME280;11789;53.482;9.862;2024-01-06T03:15:56;100713.84;;;-1.65;100.00
23241;BME280;11789;53.482;9.862;2024-01-06T03:18:21;100712.19;;;-1.65;100.00
23241;BME280;11789;53.482;9.862;2024-01-06T03:20:47;100718.13;;;-1.64;100.00
23241;BME280;11789;53.482;9.862;2024-01-06T03:23:12;100727.53;;;-1.62;100.00
23241;BME280;11789;53.482;9.862;2024-01-06T03:25:37;100723.94;;;-1.67;100.00
23241;BME280;11789;53.482;9.862;2024-01-06T03:28:03;100727.38;;;-1.65;100.00
23241;BME280;11789;53.482;9.862;2024-01-06T03:30:28;100731.59;;;-1.65;100.00
23241;BME280;11789;53.482;9.862;2024-01-06T03:32:54;100729.97;;;-1.63;100.00
23241;BME280;11789;53.482;9.862;2024-01-06T03:35:19;100730.72;;;-1.66;100.00
23241;BME280;11789;53.482;9.862;2024-01-06T03:37:45;100734.19;;;-1.64;100.00
23241;BME280;11789;53.482;9.862;2024-01-06T03:40:11;100742.59;;;-1.65;100.00
23241;BME280;11789;53.482;9.862;2024-01-06T03:42:36;100745.87;;;-1.67;100.00
23241;BME280;11789;53.482;9.862;2024-01-06T03:45:02;100750.13;;;-1.66;100.00
23241;BME280;11789;53.482;9.862;2024-01-06T03:47:28;100754.25;;;-1.68;100.00
23241;BME280;11789;53.482;9.862;2024-01-06T03:49:54;100748.25;;;-1.70;100.00
23241;BME280;11789;53.482;9.862;2024-01-06T03:52:19;100754.12;;;-1.71;100.00
23241;BME280;11789;53.482;9.862;2024-01-06T03:54:45;100755.91;;;-1.69;100.00
23241;BME280;11789;53.482;9.862;2024-01-06T03:57:10;100762.72;;;-1.68;100.00
23241;BME280;11789;53.482;9.862;2024-01-06T03:59:35;100766.91;;;-1.68;100.00
23241;BME280;11789;53.482;9.862;2024-01-06T04:02:01;100760.13;;;-1.69;100.00
23241;BME280;11789;53.482;9.862;2024-01-06T04:04:27;100757.47;;;-1.72;100.00
23241;BME280;11789;53.482;9.862;2024-01-06T04:06:52;100761.63;;;-1.73;100.00
23241;BME280;11789;53.482;9.862;2024-01-06T04:09:18;100767.50;;;-1.74;100.00
23241;BME280;11789;53.482;9.862;2024-01-06T04:11:43;100760.47;;;-1.79;100.00
23241;BME280;11789;53.482;9.862;2024-01-06T04:14:08;100771.50;;;-1.79;100.00
23241;BME280;11789;53.482;9.862;2024-01-06T04:16:34;100771.53;;;-1.77;100.00
23241;BME280;11789;53.482;9.862;2024-01-06T04:18:59;100771.53;;;-1.77;100.00
23241;BME280;11789;53.482;9.862;2024-01-06T04:21:25;100775.69;;;-1.79;100.00
23241;BME280;11789;53.482;9.862;2024-01-06T04:23:50;100776.56;;;-1.79;100.00
23241;BME280;11789;53.482;9.862;2024-01-06T04:26:15;100778.22;;;-1.79;100.00
23241;BME280;11789;53.482;9.862;2024-01-06T04:28:41;100780.97;;;-1.75;100.00
23241;BME280;11789;53.482;9.862;2024-01-06T04:31:06;100784.16;;;-1.79;100.00
23241;BME280;11789;53.482;9.862;2024-01-06T04:33:32;100787.72;;;-1.75;100.00
23241;BME280;11789;53.482;9.862;2024-01-06T04:35:58;100793.59;;;-1.76;100.00
23241;BME280;11789;53.482;9.862;2024-01-06T04:38:24;100791.97;;;-1.74;100.00
23241;BME280;11789;53.482;9.862;2024-01-06T04:40:49;100809.66;;;-1.76;100.00
23241;BME280;11789;53.482;9.862;2024-01-06T04:43:15;100796.13;;;-1.76;100.00
23241;BME280;11789;53.482;9.862;2024-01-06T04:45:40;100804.50;;;-1.77;100.00
23241;BME280;11789;53.482;9.862;2024-01-06T04:48:07;100801.84;;;-1.80;100.00
23241;BME280;11789;53.482;9.862;2024-01-06T04:50:33;100816.22;;;-1.79;100.00
23241;BME280;11789;53.482;9.862;2024-01-06T04:52:58;100814.50;;;-1.80;100.00
23241;BME280;11789;53.482;9.862;2024-01-06T04:55:24;100821.47;;;-1.76;100.00
23241;BME280;11789;53.482;9.862;2024-01-06T04:57:49;100819.84;;;-1.74;100.00
23241;BME280;11789;53.482;9.862;2024-01-06T05:00:15;100817.31;;;-1.74;100.00
23241;BME280;11789;53.482;9.862;2024-01-06T05:02:41;100820.59;;;-1.77;100.00
23241;BME280;11789;53.482;9.862;2024-01-06T05:05:06;100824.84;;;-1.76;100.00
23241;BME280;11789;53.482;9.862;2024-01-06T05:07:32;100824.00;;;-1.76;100.00
23241;BME280;11789;53.482;9.862;2024-01-06T05:09:57;100822.22;;;-1.77;100.00
23241;BME280;11789;53.482;9.862;2024-01-06T05:12:23;100823.03;;;-1.78;100.00
23241;BME280;11789;53.482;9.862;2024-01-06T05:14:48;100824.00;;;-1.76;100.00
23241;BME280;11789;53.482;9.862;2024-01-06T05:17:14;100823.03;;;-1.78;100.00
23241;BME280;11789;53.482;9.862;2024-01-06T05:19:39;100822.22;;;-1.77;100.00
23241;BME280;11789;53.482;9.862;2024-01-06T05:22:05;100822.16;;;-1.79;100.00
23241;BME280;11789;53.482;9.862;2024-01-06T05:24:30;100834.91;;;-1.77;100.00
23241;BME280;11789;53.482;9.862;2024-01-06T05:26:56;100832.25;;;-1.80;100.00
23241;BME280;11789;53.482;9.862;2024-01-06T05:29:21;100838.09;;;-1.81;100.00
23241;BME280;11789;53.482;9.862;2024-01-06T05:31:47;100844.84;;;-1.82;100.00
23241;BME280;11789;53.482;9.862;2024-01-06T05:34:14;100851.63;;;-1.81;100.00
23241;BME280;11789;53.482;9.862;2024-01-06T05:36:40;100847.44;;;-1.80;100.00
23241;BME280;11789;53.482;9.862;2024-01-06T05:39:05;100853.31;;;-1.81;100.00
23241;BME280;11789;53.482;9.862;2024-01-06T05:41:37;100865.97;;;-1.81;100.00
23241;BME280;11789;53.482;9.862;2024-01-06T05:44:03;100866.03;;;-1.80;100.00
23241;BME280;11789;53.482;9.862;2024-01-06T05:46:28;100879.59;;;-1.79;100.00
23241;BME280;11789;53.482;9.862;2024-01-06T05:48:54;100878.66;;;-1.81;100.00
23241;BME280;11789;53.482;9.862;2024-01-06T05:51:21;100887.19;;;-1.79;100.00
23241;BME280;11789;53.482;9.862;2024-01-06T05:53:47;100884.50;;;-1.83;100.00
23241;BME280;11789;53.482;9.862;2024-01-06T05:56:22;100884.41;;;-1.84;100.00
23241;BME280;11789;53.482;9.862;2024-01-06T05:58:49;100896.28;;;-1.83;100.00
23241;BME280;11789;53.482;9.862;2024-01-06T06:01:14;100909.81;;;-1.83;100.00
23241;BME280;11789;53.482;9.862;2024-01-06T06:03:40;100911.44;;;-1.85;100.00
23241;BME280;11789;53.482;9.862;2024-01-06T06:06:05;100914.03;;;-1.83;100.00
23241;BME280;11789;53.482;9.862;2024-01-06T06:08:31;100919.03;;;-1.85;100.00
23241;BME280;11789;53.482;9.862;2024-01-06T06:10:56;100930.91;;;-1.84;100.00
23241;BME280;11789;53.482;9.862;2024-01-06T06:13:30;100928.47;;;-1.82;100.00
23241;BME280;11789;53.482;9.862;2024-01-06T06:15:56;100924.31;;;-1.80;100.00
23241;BME280;11789;53.482;9.862;2024-01-06T06:18:21;100930.09;;;-1.83;100.00
23241;BME280;11789;53.482;9.862;2024-01-06T06:20:47;100930.91;;;-1.84;100.00
23241;BME280;11789;53.482;9.862;2024-01-06T06:23:13;100935.03;;;-1.86;100.00
23241;BME280;11789;53.482;9.862;2024-01-06T06:25:38;100939.13;;;-1.88;100.00
23241;BME280;11789;53.482;9.862;2024-01-06T06:28:04;100947.53;;;-1.89;100.00
23241;BME280;11789;53.482;9.862;2024-01-06T06:30:30;100952.53;;;-1.90;100.00
23241;BME280;11789;53.482;9.862;2024-01-06T06:32:55;100961.94;;;-1.88;100.00
23241;BME280;11789;53.482;9.862;2024-01-06T06:35:22;100965.28;;;-1.89;100.00
23241;BME280;11789;53.482;9.862;2024-01-06T06:37:48;100970.44;;;-1.87;100.00
23241;BME280;11789;53.482;9.862;2024-01-06T06:40:14;100970.28;;;-1.90;100.00
23241;BME280;11789;53.482;9.862;2024-01-06T06:42:39;100973.66;;;-1.90;100.00
23241;BME280;11789;53.482;9.862;2024-01-06T06:45:05;100978.72;;;-1.90;100.00
23241;BME280;11789;53.482;9.862;2024-01-06T06:47:30;100980.34;;;-1.92;100.00
23241;BME280;11789;53.482;9.862;2024-01-06T06:49:56;100983.97;;;-1.87;100.00
23241;BME280;11789;53.482;9.862;2024-01-06T06:52:21;100986.56;;;-1.85;100.00
23241;BME280;11789;53.482;9.862;2024-01-06T06:54:47;100994.09;;;-1.87;100.00
23241;BME280;11789;53.482;9.862;2024-01-06T06:57:14;101003.50;;;-1.84;100.00
23241;BME280;11789;53.482;9.862;2024-01-06T06:59:40;100997.41;;;-1.88;100.00
23241;BME280;11789;53.482;9.862;2024-01-06T07:02:06;101005.00;;;-1.88;100.00
23241;BME280;11789;53.482;9.862;2024-01-06T07:04:31;101010.00;;;-1.89;100.00
23241;BME280;11789;53.482;9.862;2024-01-06T07:06:57;101017.69;;;-1.88;100.00
23241;BME280;11789;53.482;9.862;2024-01-06T07:09:22;101021.81;;;-1.90;100.00
23241;BME280;11789;53.482;9.862;2024-01-06T07:11:51;101018.56;;;-1.87;100.00
23241;BME280;11789;53.482;9.862;2024-01-06T07:14:17;101026.00;;;-1.90;100.00
23241;BME280;11789;53.482;9.862;2024-01-06T07:16:42;101026.06;;;-1.89;100.00
23241;BME280;11789;53.482;9.862;2024-01-06T07:19:07;101029.66;;;-1.85;100.00
23241;BME280;11789;53.482;9.862;2024-01-06T07:21:33;101028.53;;;-1.90;100.00
23241;BME280;11789;53.482;9.862;2024-01-06T07:23:58;101041.28;;;-1.89;100.00
23241;BME280;11789;53.482;9.862;2024-01-06T07:26:24;101043.81;;;-1.89;100.00
23241;BME280;11789;53.482;9.862;2024-01-06T07:28:49;101045.41;;;-1.91;100.00
23241;BME280;11789;53.482;9.862;2024-01-06T07:31:15;101048.97;;;-1.87;100.00
23241;BME280;11789;53.482;9.862;2024-01-06T07:33:40;101054.13;;;-1.86;100.00
23241;BME280;11789;53.482;9.862;2024-01-06T07:36:06;101049.94;;;-1.85;100.00
23241;BME280;11789;53.482;9.862;2024-01-06T07:38:31;101058.41;;;-1.85;100.00
23241;BME280;11789;53.482;9.862;2024-01-06T07:40:57;101058.22;;;-1.88;100.00
23241;BME280;11789;53.482;9.862;2024-01-06T07:43:22;101065.19;;;-1.84;100.00
23241;BME280;11789;53.482;9.862;2024-01-06T07:45:48;101072.72;;;-1.85;100.00
23241;BME280;11789;53.482;9.862;2024-01-06T07:48:14;101072.91;;;-1.82;100.00
23241;BME280;11789;53.482;9.862;2024-01-06T07:50:40;101075.50;;;-1.80;100.00
23241;BME280;11789;53.482;9.862;2024-01-06T07:53:05;101079.59;;;-1.83;100.00
23241;BME280;11789;53.482;9.862;2024-01-06T07:55:31;101077.06;;;-1.83;100.00
23241;BME280;11789;53.482;9.862;2024-01-06T07:57:56;101086.34;;;-1.83;100.00
23241;BME280;11789;53.482;9.862;2024-01-06T08:00:22;101089.66;;;-1.84;100.00
23241;BME280;11789;53.482;9.862;2024-01-06T08:02:47;101094.66;;;-1.86;100.00
23241;BME280;11789;53.482;9.862;2024-01-06T08:05:13;101098.94;;;-1.85;100.00
23241;BME280;11789;53.482;9.862;2024-01-06T08:07:38;101099.00;;;-1.83;100.00
23241;BME280;11789;53.482;9.862;2024-01-06T08:10:05;101107.47;;;-1.83;100.00
23241;BME280;11789;53.482;9.862;2024-01-06T08:12:31;101108.53;;;-1.79;100.00
23241;BME280;11789;53.482;9.862;2024-01-06T08:14:56;101110.12;;;-1.81;100.00
23241;BME280;11789;53.482;9.862;2024-01-06T08:17:22;101121.91;;;-1.81;100.00
23241;BME280;11789;53.482;9.862;2024-01-06T08:19:47;101123.66;;;-1.80;100.00
23241;BME280;11789;53.482;9.862;2024-01-06T08:22:13;101136.41;;;-1.79;100.00
23241;BME280;11789;53.482;9.862;2024-01-06T08:24:39;101140.53;;;-1.81;100.00
23241;BME280;11789;53.482;9.862;2024-01-06T08:27:04;101141.41;;;-1.80;100.00
23241;BME280;11789;53.482;9.862;2024-01-06T08:29:30;101155.72;;;-1.81;100.00
23241;BME280;11789;53.482;9.862;2024-01-06T08:31:56;101160.81;;;-1.81;100.00
23241;BME280;11789;53.482;9.862;2024-01-06T08:34:21;101152.31;;;-1.81;100.00
23241;BME280;11789;53.482;9.862;2024-01-06T08:36:47;101163.41;;;-1.79;100.00
23241;BME280;11789;53.482;9.862;2024-01-06T08:39:12;101159.22;;;-1.79;100.00
23241;BME280;11789;53.482;9.862;2024-01-06T08:41:38;101164.28;;;-1.79;100.00
23241;BME280;11789;53.482;9.862;2024-01-06T08:44:04;101166.88;;;-1.77;100.00
23241;BME280;11789;53.482;9.862;2024-01-06T08:46:29;101177.03;;;-1.77;100.00
23241;BME280;11789;53.482;9.862;2024-01-06T08:48:56;101187.16;;;-1.77;100.00
23241;BME280;11789;53.482;9.862;2024-01-06T08:51:21;101177.19;;;-1.74;100.00
23241;BME280;11789;53.482;9.862;2024-01-06T08:53:47;101181.41;;;-1.75;100.00
23241;BME280;11789;53.482;9.862;2024-01-06T08:56:12;101179.47;;;-1.79;100.00
23241;BME280;11789;53.482;9.862;2024-01-06T08:58:38;101187.94;;;-1.78;100.00
23241;BME280;11789;53.482;9.862;2024-01-06T09:01:03;101192.22;;;-1.77;100.00
23241;BME280;11789;53.482;9.862;2024-01-06T09:03:29;101195.56;;;-1.78;100.00
23241;BME280;11789;53.482;9.862;2024-01-06T09:05:57;101205.88;;;-1.75;100.00
23241;BME280;11789;53.482;9.862;2024-01-06T09:08:23;101204.19;;;-1.75;100.00
23241;BME280;11789;53.482;9.862;2024-01-06T09:10:49;101209.34;;;-1.73;100.00
23241;BME280;11789;53.482;9.862;2024-01-06T09:13:17;101215.12;;;-1.76;100.00
23241;BME280;11789;53.482;9.862;2024-01-06T09:15:43;101227.00;;;-1.75;100.00
23241;BME280;11789;53.482;9.862;2024-01-06T09:18:09;101221.16;;;-1.74;100.00
23241;BME280;11789;53.482;9.862;2024-01-06T09:20:34;101219.47;;;-1.73;100.00
23241;BME280;11789;53.482;9.862;2024-01-06T09:23:00;101217.75;;;-1.74;100.00
23241;BME280;11789;53.482;9.862;2024-01-06T09:25:26;101233.81;;;-1.74;100.00
23241;BME280;11789;53.482;9.862;2024-01-06T09:27:51;101230.59;;;-1.71;100.00
23241;BME280;11789;53.482;9.862;2024-01-06T09:30:18;101234.88;;;-1.70;100.00
23241;BME280;11789;53.482;9.862;2024-01-06T09:32:44;101236.47;;;-1.72;100.00
23241;BME280;11789;53.482;9.862;2024-01-06T09:35:09;101235.56;;;-1.73;100.00
23241;BME280;11789;53.482;9.862;2024-01-06T09:37:34;101239.75;;;-1.73;100.00
23241;BME280;11789;53.482;9.862;2024-01-06T09:40:00;101243.16;;;-1.73;100.00
23241;BME280;11789;53.482;9.862;2024-01-06T09:42:25;101250.94;;;-1.70;100.00
23241;BME280;11789;53.482;9.862;2024-01-06T09:44:51;101248.34;;;-1.71;100.00
23241;BME280;11789;53.482;9.862;2024-01-06T09:47:18;101254.34;;;-1.69;100.00
23241;BME280;11789;53.482;9.862;2024-01-06T09:49:48;101257.94;;;-1.66;100.00
23241;BME280;11789;53.482;9.862;2024-01-06T09:52:15;101261.28;;;-1.67;100.00
23241;BME280;11789;53.482;9.862;2024-01-06T09:54:46;101268.00;;;-1.67;100.00
23241;BME280;11789;53.482;9.862;2024-01-06T09:57:15;101259.50;;;-1.68;100.00
23241;BME280;11789;53.482;9.862;2024-01-06T09:59:41;101269.88;;;-1.63;100.00
23241;BME280;11789;53.482;9.862;2024-01-06T10:02:14;101269.75;;;-1.66;100.00
23241;BME280;11789;53.482;9.862;2024-01-06T10:04:40;101263.87;;;-1.65;100.00
23241;BME280;11789;53.482;9.862;2024-01-06T10:07:05;101268.22;;;-1.63;100.00
23241;BME280;11789;53.482;9.862;2024-01-06T10:09:31;101279.09;;;-1.65;100.00
23241;BME280;11789;53.482;9.862;2024-01-06T10:11:57;101282.50;;;-1.65;100.00
23241;BME280;11789;53.482;9.862;2024-01-06T10:14:25;101279.09;;;-1.65;100.00
23241;BME280;11789;53.482;9.862;2024-01-06T10:16:54;101281.53;;;-1.67;100.00
23241;BME280;11789;53.482;9.862;2024-01-06T10:19:19;101289.16;;;-1.67;100.00
23241;BME280;11789;53.482;9.862;2024-01-06T10:21:46;101290.81;;;-1.67;100.00
23241;BME280;11789;53.482;9.862;2024-01-06T10:24:11;101293.34;;;-1.67;100.00
23241;BME280;11789;53.482;9.862;2024-01-06T10:26:37;101291.03;;;-1.63;100.00
23241;BME280;11789;53.482;9.862;2024-01-06T10:29:03;101292.69;;;-1.63;100.00
23241;BME280;11789;53.482;9.862;2024-01-06T10:31:30;101290.09;;;-1.65;100.00
23241;BME280;11789;53.482;9.862;2024-01-06T10:33:55;101296.22;;;-1.61;100.00
23241;BME280;11789;53.482;9.862;2024-01-06T10:36:23;101299.53;;;-1.62;100.00
23241;BME280;11789;53.482;9.862;2024-01-06T10:38:49;101296.22;;;-1.61;100.00
23241;BME280;11789;53.482;9.862;2024-01-06T10:41:16;101305.31;;;-1.65;100.00
23241;BME280;11789;53.482;9.862;2024-01-06T10:43:42;101304.50;;;-1.64;100.00
23241;BME280;11789;53.482;9.862;2024-01-06T10:46:09;101307.16;;;-1.62;100.00
23241;BME280;11789;53.482;9.862;2024-01-06T10:48:39;101316.50;;;-1.61;100.00
23241;BME280;11789;53.482;9.862;2024-01-06T10:51:08;101313.78;;;-1.64;100.00
23241;BME280;11789;53.482;9.862;2024-01-06T10:53:34;101318.91;;;-1.63;100.00
23241;BME280;11789;53.482;9.862;2024-01-06T10:56:08;101322.09;;;-1.67;100.00
23241;BME280;11789;53.482;9.862;2024-01-06T10:58:36;101314.25;;;-1.71;100.00
23241;BME280;11789;53.482;9.862;2024-01-06T11:01:11;101315.97;;;-1.70;100.00
23241;BME280;11789;53.482;9.862;2024-01-06T11:03:38;101311.97;;;-1.67;100.00
23241;BME280;11789;53.482;9.862;2024-01-06T11:06:08;101318.59;;;-1.69;100.00
23241;BME280;11789;53.482;9.862;2024-01-06T11:08:43;101325.94;;;-1.73;100.00
23241;BME280;11789;53.482;9.862;2024-01-06T11:11:18;101311.72;;;-1.71;100.00
23241;BME280;11789;53.482;9.862;2024-01-06T11:13:45;101318.78;;;-1.66;100.00
23241;BME280;11789;53.482;9.862;2024-01-06T11:16:12;101321.31;;;-1.66;100.00
23241;BME280;11789;53.482;9.862;2024-01-06T11:18:57;101328.37;;;-1.60;100.00
23241;BME280;11789;53.482;9.862;2024-01-06T11:21:23;101336.16;;;-1.57;100.00
23241;BME280;11789;53.482;9.862;2024-01-06T11:24:15;101330.91;;;-1.60;100.00
23241;BME280;11789;53.482;9.862;2024-01-06T11:26:49;101340.25;;;-1.59;100.00
23241;BME280;11789;53.482;9.862;2024-01-06T11:29:14;101338.59;;;-1.59;100.00
23241;BME280;11789;53.482;9.862;2024-01-06T11:31:40;101340.50;;;-1.54;100.00
23241;BME280;11789;53.482;9.862;2024-01-06T11:34:14;101343.06;;;-1.54;100.00
23241;BME280;11789;53.482;9.862;2024-01-06T11:36:43;101347.50;;;-1.50;100.00
23241;BME280;11789;53.482;9.862;2024-01-06T11:39:35;101349.00;;;-1.54;100.00
23241;BME280;11789;53.482;9.862;2024-01-06T11:42:02;101344.53;;;-1.58;100.00
23241;BME280;11789;53.482;9.862;2024-01-06T11:44:28;101348.84;;;-1.57;100.00
23241;BME280;11789;53.482;9.862;2024-01-06T11:46:56;101343.78;;;-1.57;100.00
23241;BME280;11789;53.482;9.862;2024-01-06T11:49:22;101343.91;;;-1.54;100.00
23241;BME280;11789;53.482;9.862;2024-01-06T11:51:51;101341.31;;;-1.55;100.00
23241;BME280;11789;53.482;9.862;2024-01-06T11:54:18;101344.00;;;-1.52;100.00
23241;BME280;11789;53.482;9.862;2024-01-06T11:56:44;101349.88;;;-1.53;100.00
23241;BME280;11789;53.482;9.862;2024-01-06T11:59:09;101347.94;;;-1.58;100.00
23241;BME280;11789;53.482;9.862;2024-01-06T12:01:38;101346.19;;;-1.59;100.00
23241;BME280;11789;53.482;9.862;2024-01-06T12:04:05;101353.66;;;-1.62;100.00
23241;BME280;11789;53.482;9.862;2024-01-06T12:06:31;101346.66;;;-1.66;100.00
23241;BME280;11789;53.482;9.862;2024-01-06T12:09:04;101348.22;;;-1.68;100.00
23241;BME280;11789;53.482;9.862;2024-01-06T12:11:30;101351.66;;;-1.67;100.00
23241;BME280;11789;53.482;9.862;2024-01-06T12:13:55;101344.81;;;-1.68;100.00
23241;BME280;11789;53.482;9.862;2024-01-06T12:16:22;101348.84;;;-1.72;100.00
23241;BME280;11789;53.482;9.862;2024-01-06T12:18:47;101351.28;;;-1.73;100.00
23241;BME280;11789;53.482;9.862;2024-01-06T12:21:13;101349.63;;;-1.73;100.00
23241;BME280;11789;53.482;9.862;2024-01-06T12:23:38;101354.59;;;-1.74;100.00
23241;BME280;11789;53.482;9.862;2024-01-06T12:26:04;101358.13;;;-1.72;100.00
23241;BME280;11789;53.482;9.862;2024-01-06T12:28:29;101358.13;;;-1.72;100.00
23241;BME280;11789;53.482;9.862;2024-01-06T12:30:55;101366.69;;;-1.70;100.00
23241;BME280;11789;53.482;9.862;2024-01-06T12:33:20;101373.47;;;-1.69;100.00
23241;BME280;11789;53.482;9.862;2024-01-06T12:35:46;101362.22;;;-1.74;100.00